Terminal Aerodrome Forecast
Issued by NWS

Home | Current Version | Previous Version | Graphics & Text | Print | Product List | Glossary Off
Versions: 1 2 3 4 5 6 7 8 9 10 11 12 13 14 15 16 17 18 19 20 21 22 23 24 25 26 27 28 29 30 31 32 33 34 35 36 37 38 39 40 41 42 43 44 45 46 47 48 49 50

000
FTUS43 KDDC 211729
TAFHYS
TAF
KHYS 211729Z 2118/2218 15007KT P6SM SKC
     FM212100 17008KT P6SM OVC010
     FM220800 22004KT 2SM BR OVC005
      TEMPO 2210/2213 1/2SM FZFG OVC002
     FM221300 22006KT P6SM SCT030=

USA.gov is the U.S. government's official web portal to all federal, state and local government web resources and services.